Time;durP1;ratioP1;P1;durP2;ratioP2;P2;SDS_P1;SDS_P2;PMS_P1;PMS_P2;Temp;Humidity;BMP_temperature;BMP_pressure;BME280_temperature;BME280_humidity;BME280_pressure;Samples;Min_cycle;Max_cycle;Signal;HPM_P1;HPM_P2
2021/04/20 00:00:45;;;;;;;11.18;7.03;;;;;;;1.30;68.82;94143.34;4936877;29;20051;-74
2021/04/20 00:03:23;;;;;;;9.88;6.80;;;;;;;1.28;69.83;94140.06;4937286;29;20134;-74
2021/04/20 00:05:52;;;;;;;10.63;7.00;;;;;;;1.24;70.00;94133.50;4948364;28;20081;-74
2021/04/20 00:08:28;;;;;;;11.70;6.88;;;;;;;1.19;69.94;94135.59;4959858;28;20045;-74
2021/04/20 00:11:22;;;;;;;13.23;7.00;;;;;;;1.16;70.46;94135.84;4959380;28;20042;-74
2021/04/20 00:13:48;;;;;;;12.43;7.05;;;;;;;1.08;70.46;94136.41;4909682;28;20034;-74
2021/04/20 00:16:23;;;;;;;13.20;7.63;;;;;;;1.01;71.07;94128.31;4940272;28;20058;-74
2021/04/20 00:18:53;;;;;;;12.50;7.22;;;;;;;0.94;71.13;94123.72;4940583;28;20457;-74
2021/04/20 00:21:49;;;;;;;12.90;7.75;;;;;;;0.80;71.48;94119.59;4956052;28;20035;-74
2021/04/20 00:24:20;;;;;;;12.20;7.07;;;;;;;0.89;70.24;94120.69;4898746;29;20044;-74
2021/04/20 00:26:46;;;;;;;13.43;8.02;;;;;;;0.83;70.84;94120.19;4897592;29;20028;-74
2021/04/20 00:29:22;;;;;;;14.60;7.88;;;;;;;0.80;70.99;94117.84;4915083;29;20072;-74
2021/04/20 00:31:49;;;;;;;13.45;7.60;;;;;;;0.90;70.56;94115.41;4902021;29;20040;-74
2021/04/20 00:34:48;;;;;;;12.60;7.93;;;;;;;0.90;71.04;94118.00;4933340;29;20043;-74
2021/04/20 00:37:13;;;;;;;13.63;7.75;;;;;;;0.91;71.35;94121.38;4892661;29;20041;-74
2021/04/20 00:39:39;;;;;;;11.73;6.90;;;;;;;0.95;71.17;94127.94;4877216;29;20100;-74
2021/04/20 00:42:05;;;;;;;13.77;7.78;;;;;;;0.92;71.60;94112.72;4861823;29;20088;-74
2021/04/20 00:44:31;;;;;;;11.90;7.35;;;;;;;0.90;71.52;94114.56;4877003;29;20041;-74
2021/04/20 00:47:01;;;;;;;12.35;7.88;;;;;;;0.90;71.29;94109.41;4877036;29;20033;-74
2021/04/20 00:49:27;;;;;;;13.05;8.13;;;;;;;0.92;71.11;94121.25;4887637;29;20095;-74
2021/04/20 00:51:55;;;;;;;13.95;8.27;;;;;;;0.95;71.56;94113.31;4907889;29;20043;-74
2021/04/20 00:57:53;;;;;;;12.48;7.65;;;;;;;0.86;71.03;94108.84;4933704;29;20091;-74
2021/04/20 01:00:25;;;;;;;12.80;7.85;;;;;;;0.86;71.39;94110.59;4961276;28;20053;-74
2021/04/20 01:02:53;;;;;;;12.80;8.25;;;;;;;0.81;70.92;94104.00;4959687;28;20035;-74
2021/04/20 01:05:21;;;;;;;12.88;8.20;;;;;;;0.78;71.04;94106.81;4967982;28;20037;-74
2021/04/20 01:08:06;;;;;;;12.68;8.05;;;;;;;0.73;71.10;94098.63;4975534;28;20034;-74
2021/04/20 01:10:47;;;;;;;12.25;7.95;;;;;;;0.70;70.90;94105.75;4959025;28;20030;-74
2021/04/20 01:13:26;;;;;;;13.68;8.65;;;;;;;0.56;71.48;94101.59;5002112;28;20158;-74
2021/04/20 01:15:58;;;;;;;10.77;7.63;;;;;;;0.51;71.49;94096.81;5038416;28;20027;-74
2021/04/20 01:18:36;;;;;;;12.25;7.25;;;;;;;0.50;71.07;94092.56;5055058;28;20029;-74
2021/04/20 01:21:10;;;;;;;11.43;7.78;;;;;;;0.48;71.05;94095.28;5055151;28;20047;-74
2021/04/20 01:24:22;;;;;;;13.68;8.10;;;;;;;0.38;72.09;94099.47;5019119;28;20026;-74
2021/04/20 01:26:53;;;;;;;13.25;8.15;;;;;;;0.41;71.96;94100.97;5022660;28;20057;-74
2021/04/20 01:29:28;;;;;;;11.73;7.25;;;;;;;0.42;69.63;94094.91;4999387;28;20041;-74
2021/04/20 01:31:55;;;;;;;14.15;7.80;;;;;;;0.44;70.18;94100.78;4998068;28;20037;-74
2021/04/20 01:34:29;;;;;;;12.18;7.75;;;;;;;0.42;70.90;94094.91;4981461;28;20045;-74
2021/04/20 01:36:57;;;;;;;12.63;7.90;;;;;;;0.40;71.70;94100.16;4981426;28;20050;-74
2021/04/20 01:39:31;;;;;;;13.23;8.40;;;;;;;0.35;71.35;94098.84;5017491;28;20026;-74
2021/04/20 01:41:56;;;;;;;11.45;7.38;;;;;;;0.30;72.05;94096.59;5016073;28;20026;-73
2021/04/20 01:44:22;;;;;;;11.38;7.95;;;;;;;0.20;72.24;94100.78;5000869;28;20128;-74
2021/04/20 01:46:47;;;;;;;12.50;8.23;;;;;;;0.25;71.92;94093.56;4999900;28;20125;-74
2021/04/20 01:49:15;;;;;;;11.20;7.95;;;;;;;0.24;71.80;94108.16;5030632;28;20038;-74
2021/04/20 01:51:40;;;;;;;14.40;7.88;;;;;;;0.22;72.29;94094.59;5029484;28;20068;-74
2021/04/20 01:54:30;;;;;;;12.23;8.18;;;;;;;0.20;71.55;94090.50;4984435;28;20021;-74
2021/04/20 01:56:58;;;;;;;13.32;7.60;;;;;;;0.16;71.26;94095.03;4999582;28;20034;-74
2021/04/20 01:59:39;;;;;;;12.23;7.68;;;;;;;0.14;71.19;94096.91;5012643;28;20045;-74
2021/04/20 02:02:06;;;;;;;14.55;7.82;;;;;;;0.13;72.00;94098.63;4997661;28;20030;-74
2021/04/20 02:04:31;;;;;;;13.73;8.38;;;;;;;0.16;71.46;94095.03;5023347;28;20037;-74
2021/04/20 02:07:06;;;;;;;13.48;8.15;;;;;;;0.06;72.55;94094.06;5034280;28;20036;-74
2021/04/20 02:09:41;;;;;;;11.77;7.75;;;;;;;0.05;72.87;94092.41;5027374;28;20039;-73
2021/04/20 02:12:07;;;;;;;14.00;9.05;;;;;;;-0.01;73.57;94091.91;5037947;28;20048;-74
2021/04/20 02:14:39;;;;;;;12.75;8.10;;;;;;;0.06;71.47;94094.06;5036592;28;20037;-74
2021/04/20 02:17:05;;;;;;;13.60;8.38;;;;;;;0.05;73.07;94088.06;5054050;28;20017;-73
2021/04/20 02:19:31;;;;;;;13.68;8.45;;;;;;;0.07;72.69;94090.53;5037171;28;20127;-74
2021/04/20 02:21:56;;;;;;;14.13;8.88;;;;;;;0.07;73.61;94085.38;5035851;28;20116;-74
2021/04/20 02:24:30;;;;;;;15.57;9.20;;;;;;;-0.02;73.46;94086.88;5016994;28;20048;-74
2021/04/20 02:26:57;;;;;;;13.45;8.63;;;;;;;-0.01;73.42;94089.34;5027443;28;20057;-74
2021/04/20 02:29:24;;;;;;;15.00;9.32;;;;;;;0.06;73.05;94089.72;5050509;28;20018;-73
2021/04/20 02:31:53;;;;;;;15.75;8.93;;;;;;;0.07;73.33;94090.53;5052706;28;20022;-74
2021/04/20 02:34:19;;;;;;;17.17;10.30;;;;;;;0.06;74.13;94086.34;5037426;28;20025;-74
2021/04/20 02:36:54;;;;;;;15.43;10.25;;;;;;;0.05;74.20;94084.69;5020216;28;20025;-74
2021/04/20 02:39:34;;;;;;;16.45;10.38;;;;;;;0.02;74.11;94083.16;5036977;28;20051;-74
2021/04/20 02:42:01;;;;;;;16.70;10.20;;;;;;;0.05;73.95;94080.34;5053589;28;20033;-73
2021/04/20 02:44:27;;;;;;;17.20;9.38;;;;;;;0.06;73.59;94082.00;5036996;28;20021;-74
2021/04/20 02:46:59;;;;;;;17.63;10.25;;;;;;;0.02;73.10;94074.63;5053073;28;20037;-74
2021/04/20 02:49:25;;;;;;;18.73;10.40;;;;;;;0.00;74.05;94079.88;5046301;28;20021;-74
2021/04/20 02:51:52;;;;;;;16.85;10.48;;;;;;;0.07;73.90;94082.81;5056334;28;20030;-74
2021/04/20 02:54:28;;;;;;;14.55;9.60;;;;;;;0.05;73.94;94084.69;5040674;28;20020;-74
2021/04/20 02:57:01;;;;;;;15.77;10.30;;;;;;;0.03;73.50;94091.69;5057032;28;20068;-73
2021/04/20 02:59:29;;;;;;;19.70;10.63;;;;;;;0.00;73.85;94079.88;5056524;28;20017;-74
2021/04/20 03:01:59;;;;;;;19.00;11.02;;;;;;;0.04;73.98;94081.31;5047941;28;20393;-74
2021/04/20 03:04:26;;;;;;;18.88;10.68;;;;;;;0.04;74.01;94078.72;5031591;28;20016;-74
2021/04/20 03:07:22;;;;;;;17.73;9.98;;;;;;;0.09;74.17;94074.06;5040023;28;20075;-74
2021/04/20 03:10:03;;;;;;;15.80;10.75;;;;;;;0.05;73.99;94077.78;5015320;28;20088;-74
2021/04/20 03:13:02;;;;;;;14.80;9.73;;;;;;;0.04;72.91;94071.00;5015671;28;20120;-74
2021/04/20 03:15:35;;;;;;;16.60;10.30;;;;;;;0.04;72.73;94070.19;4941103;28;20043;-74
2021/04/20 03:18:03;;;;;;;19.27;10.98;;;;;;;0.02;73.71;94070.28;4925261;28;20027;-74
2021/04/20 03:20:45;;;;;;;14.88;9.43;;;;;;;0.03;73.07;94071.94;4941033;28;20043;-74
2021/04/20 03:23:20;;;;;;;16.60;10.10;;;;;;;-0.15;74.03;94070.66;4940840;28;20038;-74
2021/04/20 03:25:55;;;;;;;17.63;10.27;;;;;;;-0.15;73.85;94068.94;4956928;28;20130;-74
2021/04/20 03:28:53;;;;;;;16.75;10.70;;;;;;;-0.19;74.39;94064.91;4957141;28;20078;-73
2021/04/20 03:31:18;;;;;;;19.00;9.93;;;;;;;-0.13;71.85;94067.06;4918806;29;20039;-74
2021/04/20 03:34:02;;;;;;;17.92;9.43;;;;;;;-0.18;72.34;94062.25;4903540;29;20046;-73
2021/04/20 03:36:31;;;;;;;17.40;9.52;;;;;;;-0.16;73.96;94064.72;4903072;29;20047;-73
2021/04/20 03:39:32;;;;;;;16.70;10.18;;;;;;;-0.15;73.26;94070.66;4887470;29;20028;-74
2021/04/20 03:42:36;;;;;;;17.58;10.00;;;;;;;-0.17;72.25;94069.00;4902984;29;20039;-74
2021/04/20 03:45:04;;;;;;;13.55;8.82;;;;;;;-0.17;72.29;94068.22;4896161;29;20040;-74
2021/04/20 03:47:36;;;;;;;17.90;10.20;;;;;;;-0.15;71.92;94068.94;4887787;29;20045;-74
2021/04/20 03:50:01;;;;;;;16.38;9.50;;;;;;;-0.15;71.95;94068.94;4865589;29;20029;-74
2021/04/20 03:52:31;;;;;;;19.60;10.75;;;;;;;-0.18;73.37;94067.41;4899169;29;20055;-74
2021/04/20 03:55:09;;;;;;;17.65;10.73;;;;;;;-0.22;74.44;94078.84;4915051;29;20047;-73
2021/04/20 03:57:35;;;;;;;19.20;10.98;;;;;;;-0.20;74.08;94061.53;4915272;29;20075;-74
2021/04/20 04:00:21;;;;;;;19.77;12.10;;;;;;;-0.15;75.78;94062.94;4915407;29;20044;-74
2021/04/20 04:02:56;;;;;;;20.58;11.02;;;;;;;-0.05;74.40;94067.34;4930037;29;20083;-73
2021/04/20 04:05:24;;;;;;;18.98;10.93;;;;;;;-0.06;74.19;94063.13;4930449;29;20032;-74
2021/04/20 04:07:55;;;;;;;18.38;10.88;;;;;;;-0.07;73.71;94063.22;4910432;29;20051;-74
2021/04/20 04:10:22;;;;;;;20.23;10.98;;;;;;;-0.03;72.79;94057.78;4918440;29;20325;-74
2021/04/20 04:13:18;;;;;;;20.42;12.38;;;;;;;-0.14;75.33;94064.59;4918557;29;20039;-74
2021/04/20 04:16:10;;;;;;;18.40;10.98;;;;;;;-0.04;75.06;94068.13;4915038;29;20036;-74
2021/04/20 04:18:35;;;;;;;19.25;11.43;;;;;;;0.05;73.88;94072.63;4927097;28;20109;-74
2021/04/20 04:21:05;;;;;;;21.38;12.27;;;;;;;-0.05;75.41;94069.09;4963284;28;20031;-74
2021/04/20 04:23:38;;;;;;;;;;;;;;;-0.12;75.14;94071.28;4906306;29;20086;-74
2021/04/20 04:26:16;;;;;;;20.63;11.70;;;;;;;0.01;74.70;94068.63;4941142;29;19910;-74
2021/04/20 04:28:52;;;;;;;18.98;10.85;;;;;;;0.17;72.65;94076.91;4921259;29;20034;-74
2021/04/20 04:31:48;;;;;;;18.85;10.80;;;;;;;0.15;73.76;94073.63;4930449;28;20027;-74
2021/04/20 04:34:17;;;;;;;18.88;10.35;;;;;;;0.22;72.95;94071.44;4922970;28;20066;-74
2021/04/20 04:36:43;;;;;;;15.50;10.25;;;;;;;0.26;73.73;94074.59;4913399;29;20137;-76
2021/04/20 04:39:13;;;;;;;19.95;10.63;;;;;;;0.28;73.70;94075.31;4917686;29;20039;-75
2021/04/20 04:41:59;;;;;;;20.17;11.60;;;;;;;0.40;73.95;94074.41;4918061;29;20046;-76
2021/04/20 04:44:29;;;;;;;20.58;12.10;;;;;;;0.48;73.90;94069.53;4941617;29;20095;-75
2021/04/20 04:46:55;;;;;;;18.77;11.60;;;;;;;0.61;74.54;94072.03;4928036;28;20035;-75
2021/04/20 04:49:20;;;;;;;17.60;10.77;;;;;;;0.73;73.94;94075.44;4921597;29;20055;-75
2021/04/20 04:51:47;;;;;;;19.83;11.70;;;;;;;0.85;74.64;94073.72;4955027;28;20035;-75
2021/04/20 04:54:12;;;;;;;20.75;12.98;;;;;;;0.92;75.08;94081.81;4996779;28;20026;-75
2021/04/20 04:57:16;;;;;;;21.45;14.15;;;;;;;0.90;75.93;94081.91;4971316;28;20062;-75
2021/04/20 04:59:43;;;;;;;21.73;12.63;;;;;;;1.11;74.97;94074.31;4964225;28;20034;-75
2021/04/20 05:02:11;;;;;;;20.00;12.48;;;;;;;1.25;74.53;94081.03;4931928;28;20043;-75
2021/04/20 05:04:38;;;;;;;25.10;12.65;;;;;;;1.40;73.82;94084.19;4922902;28;20058;-75
2021/04/20 05:07:21;;;;;;;22.23;12.95;;;;;;;1.43;74.86;94091.69;4951714;28;20042;-75
2021/04/20 05:09:51;;;;;;;20.83;12.40;;;;;;;1.51;73.87;94091.91;4942106;28;20039;-75
2021/04/20 05:12:20;;;;;;;19.63;12.73;;;;;;;1.64;73.92;94085.78;4960108;28;20041;-75
2021/04/20 05:14:46;;;;;;;17.85;12.25;;;;;;;1.79;73.00;94083.78;4936586;29;20094;-75
2021/04/20 05:17:26;;;;;;;21.05;12.30;;;;;;;1.94;72.48;94081.75;4939445;29;20027;-75
2021/04/20 05:20:03;;;;;;;;;;;;;;;1.14;73.77;94087.00;4937872;29;20043;-75
2021/04/20 05:22:30;;;;;;;22.08;13.38;;;;;;;0.85;75.39;94096.88;4932435;29;19942;-75
2021/04/20 05:25:14;;;;;;;21.85;13.32;;;;;;;0.94;73.94;94092.78;4939719;29;20045;-75
2021/04/20 05:27:42;;;;;;;19.92;12.07;;;;;;;1.19;73.68;94089.22;4964947;28;20089;-75
2021/04/20 05:30:08;;;;;;;17.67;11.93;;;;;;;1.38;72.97;94083.47;4935981;29;20039;-75
2021/04/20 05:32:49;;;;;;;25.00;13.70;;;;;;;1.28;73.81;94087.66;4940786;28;20038;-75
2021/04/20 05:35:21;;;;;;;20.65;12.82;;;;;;;1.39;73.90;94085.13;5015503;28;20037;-75
2021/04/20 05:37:47;;;;;;;22.45;13.15;;;;;;;1.71;73.09;94084.38;5020594;28;20025;-75
2021/04/20 05:40:16;;;;;;;23.65;14.20;;;;;;;1.86;73.09;94079.78;5020570;28;20178;-75
2021/04/20 05:42:43;;;;;;;24.45;14.77;;;;;;;1.93;73.19;94078.38;5024832;28;20029;-75
2021/04/20 05:45:15;;;;;;;24.13;13.88;;;;;;;2.10;72.11;94081.38;5027970;28;20033;-75
2021/04/20 05:47:42;;;;;;;26.70;14.70;;;;;;;2.25;71.94;94077.56;5044666;28;20043;-75
2021/04/20 05:50:10;;;;;;;23.80;13.55;;;;;;;2.25;71.96;94077.56;5043352;28;20029;-75
2021/04/20 05:52:36;;;;;;;21.92;13.05;;;;;;;2.45;71.94;94078.53;5037579;28;20048;-75
2021/04/20 05:55:07;;;;;;;20.42;12.10;;;;;;;2.69;70.57;94077.47;5026587;28;20101;-75
2021/04/20 05:58:03;;;;;;;24.15;13.68;;;;;;;2.86;71.00;94076.91;5031789;28;20053;-75
2021/04/20 06:00:35;;;;;;;22.17;13.57;;;;;;;2.96;70.64;94074.38;5057409;28;20029;-75
2021/04/20 06:03:01;;;;;;;22.88;12.88;;;;;;;3.06;70.15;94076.19;5025721;28;20047;-75
2021/04/20 06:05:34;;;;;;;19.55;13.02;;;;;;;3.08;70.70;94080.31;5052564;28;20021;-75
2021/04/20 06:08:04;;;;;;;23.13;13.85;;;;;;;3.23;70.71;94079.97;5040535;28;20060;-75
2021/04/20 06:10:49;;;;;;;20.02;12.48;;;;;;;3.34;69.73;94074.72;5040708;28;20053;-75
2021/04/20 06:13:21;;;;;;;20.52;12.25;;;;;;;3.36;70.62;94078.00;5031418;28;20029;-75
2021/04/20 06:15:50;;;;;;;19.88;13.05;;;;;;;3.42;70.95;94082.63;5033531;28;20344;-76
2021/04/20 06:18:23;;;;;;;19.87;12.50;;;;;;;3.53;70.07;94082.53;5037148;28;20029;-75
2021/04/20 06:21:08;;;;;;;19.75;12.57;;;;;;;3.71;71.35;94087.09;5065397;28;20032;-76
2021/04/20 06:23:36;;;;;;;19.33;12.15;;;;;;;3.81;69.81;94087.16;5034144;28;20029;-75
2021/04/20 06:26:29;;;;;;;19.63;12.65;;;;;;;3.89;68.84;94084.72;5024840;28;20017;-75
2021/04/20 06:29:02;;;;;;;18.80;11.82;;;;;;;3.99;69.28;94095.09;5033368;28;20129;-75
2021/04/20 06:31:27;;;;;;;19.65;13.20;;;;;;;4.01;70.22;94093.16;5033846;28;20032;-76
2021/04/20 06:33:55;;;;;;;21.42;13.35;;;;;;;4.11;70.10;94088.00;5030901;28;20025;-75
2021/04/20 06:36:20;;;;;;;19.70;12.73;;;;;;;4.20;69.07;94089.78;5017103;28;20048;-75
2021/04/20 06:38:46;;;;;;;20.27;11.95;;;;;;;4.35;68.58;94087.63;5017330;28;20018;-75
2021/04/20 06:41:12;;;;;;;17.52;11.70;;;;;;;4.49;67.94;94087.25;5054282;28;20025;-75
2021/04/20 06:43:48;;;;;;;15.50;10.30;;;;;;;4.69;67.14;94082.03;5034391;28;20029;-75
2021/04/20 06:46:28;;;;;;;17.77;12.00;;;;;;;4.67;67.47;94089.97;5036613;28;20025;-75
2021/04/20 06:49:01;;;;;;;17.90;12.13;;;;;;;4.71;67.25;94080.16;5036643;28;20028;-76
2021/04/20 06:51:29;;;;;;;18.02;11.35;;;;;;;4.87;66.84;94085.59;5034334;28;20025;-75
2021/04/20 06:54:07;;;;;;;17.48;12.32;;;;;;;4.99;65.63;94090.59;5038513;28;20025;-75
2021/04/20 06:57:09;;;;;;;19.98;12.93;;;;;;;4.73;66.83;94086.84;5040044;28;20025;-75
2021/04/20 07:00:04;;;;;;;24.10;12.77;;;;;;;5.02;66.21;94088.56;5053215;28;20033;-75
2021/04/20 07:03:14;;;;;;;21.05;12.77;;;;;;;5.06;65.97;94084.72;5047727;28;20029;-76
2021/04/20 07:05:47;;;;;;;17.15;11.45;;;;;;;5.25;65.07;94088.25;5062764;28;20033;-75
2021/04/20 07:08:31;;;;;;;24.90;12.60;;;;;;;5.32;65.47;94078.94;5066476;28;20112;-75
2021/04/20 07:10:56;;;;;;;19.58;11.52;;;;;;;5.40;64.70;94081.63;5038430;28;20029;-78
2021/04/20 07:13:34;;;;;;;18.38;11.63;;;;;;;5.62;64.07;94078.84;5052645;28;20025;-80
2021/04/20 07:16:17;;;;;;;26.55;13.63;;;;;;;5.84;63.97;94078.44;5050492;28;20052;-76
2021/04/20 07:19:18;;;;;;;18.67;13.77;;;;;;;5.71;63.84;94077.94;5034522;28;20013;-75
2021/04/20 07:22:25;;;;;;;19.00;12.50;;;;;;;5.83;63.57;94076.00;5050578;28;20029;-75
2021/04/20 07:25:28;;;;;;;17.55;12.63;;;;;;;6.14;63.66;94075.72;5061170;28;20025;-75
2021/04/20 07:28:13;;;;;;;17.95;11.93;;;;;;;6.33;62.92;94075.59;5067692;28;20028;-72
2021/04/20 07:30:48;;;;;;;18.67;13.18;;;;;;;6.46;64.24;94075.22;5072383;28;20040;-73
2021/04/20 07:33:25;;;;;;;19.10;12.43;;;;;;;6.58;63.77;94073.22;5029269;28;20040;-72
2021/04/20 07:36:34;;;;;;;16.98;12.50;;;;;;;6.80;61.04;94069.34;5036733;28;20040;-73
2021/04/20 07:39:09;;;;;;;17.52;12.35;;;;;;;7.07;60.92;94068.41;5053935;28;20095;-74
2021/04/20 07:42:00;;;;;;;19.25;12.20;;;;;;;7.22;58.36;94067.84;5045182;28;20483;-75
2021/04/20 07:44:32;;;;;;;21.27;12.48;;;;;;;7.24;59.14;94074.53;5054910;28;20021;-73
2021/04/20 07:47:00;;;;;;;23.60;14.45;;;;;;;7.31;58.91;94076.53;5048942;28;20085;-73
2021/04/20 07:49:48;;;;;;;17.70;11.43;;;;;;;7.41;57.03;94064.19;5036027;28;20021;-74
2021/04/20 07:52:14;;;;;;;18.52;11.82;;;;;;;7.48;56.91;94067.84;5033240;28;20029;-74
2021/04/20 07:55:14;;;;;;;16.35;11.63;;;;;;;7.59;56.23;94064.97;5028830;28;20028;-73
2021/04/20 07:58:08;;;;;;;19.50;13.20;;;;;;;7.31;60.98;94063.50;5035281;28;20025;-74
2021/04/20 08:01:20;;;;;;;18.15;12.65;;;;;;;7.55;57.72;94058.44;5034233;28;20024;-73
2021/04/20 08:03:50;;;;;;;17.42;12.10;;;;;;;8.04;58.30;94057.00;5011931;28;20033;-73
2021/04/20 08:06:50;;;;;;;16.90;10.52;;;;;;;8.26;55.86;94059.00;4998161;28;20048;-74
2021/04/20 08:09:40;;;;;;;17.58;11.07;;;;;;;8.27;54.47;94054.63;4961734;28;20045;-73
2021/04/20 08:12:38;;;;;;;18.15;12.93;;;;;;;8.27;55.68;94060.63;4955269;28;20030;-76
2021/04/20 08:15:08;;;;;;;17.20;12.43;;;;;;;8.44;57.39;94063.25;4900988;29;20122;-74
2021/04/20 08:17:43;;;;;;;16.92;11.63;;;;;;;8.61;55.38;94059.75;4888145;29;20381;-74
2021/04/20 08:20:24;;;;;;;17.65;12.20;;;;;;;8.66;55.93;94058.44;4893687;29;20036;-74
2021/04/20 08:23:01;;;;;;;27.98;11.60;;;;;;;9.18;54.50;94054.66;4884031;29;20068;-74
2021/04/20 08:25:43;;;;;;;17.23;11.82;;;;;;;9.27;55.20;94059.72;4883784;29;20088;-74
2021/04/20 08:28:46;;;;;;;16.23;11.90;;;;;;;9.26;54.40;94060.69;4910794;29;20079;-74
2021/04/20 08:31:35;;;;;;;16.00;12.15;;;;;;;9.22;54.04;94056.78;4889832;29;20054;-75
2021/04/20 08:34:28;;;;;;;;;;;;;;;9.09;55.77;94052.06;4903979;29;20049;-75
2021/04/20 08:37:08;;;;;;;16.65;10.90;;;;;;;9.51;55.47;94054.63;4904701;29;19940;-74
2021/04/20 08:40:06;;;;;;;14.40;9.85;;;;;;;9.54;52.60;94052.47;4907849;29;20371;-75
2021/04/20 08:42:45;;;;;;;12.65;9.57;;;;;;;9.48;49.24;94050.53;4914233;29;20034;-74
2021/04/20 08:45:34;;;;;;;13.52;9.25;;;;;;;9.69;48.94;94052.59;4936778;28;20042;-75
2021/04/20 08:48:29;;;;;;;11.00;8.45;;;;;;;9.76;48.00;94057.94;4987103;28;20053;-74
2021/04/20 08:51:13;;;;;;;11.02;8.05;;;;;;;10.11;47.46;94050.63;4999646;28;20047;-74
2021/04/20 08:54:00;;;;;;;11.32;7.57;;;;;;;10.16;45.89;94056.16;5043547;28;20097;-74
2021/04/20 08:56:51;;;;;;;10.50;7.28;;;;;;;10.34;43.71;94058.50;5029873;28;20033;-74
2021/04/20 08:59:43;;;;;;;10.63;8.13;;;;;;;10.04;46.37;94047.06;5075914;28;20114;-74
2021/04/20 09:02:52;;;;;;;9.60;7.38;;;;;;;10.53;45.77;94048.63;5055801;28;20142;-73
2021/04/20 09:05:32;;;;;;;10.77;7.95;;;;;;;10.68;44.22;94049.50;5062304;28;20059;-73
2021/04/20 09:08:37;;;;;;;10.05;7.30;;;;;;;10.70;44.35;94044.88;5055511;28;20033;-74
2021/04/20 09:11:19;;;;;;;10.75;8.18;;;;;;;10.93;45.86;94050.13;5054208;28;20445;-74
2021/04/20 09:14:06;;;;;;;13.60;8.27;;;;;;;11.20;43.68;94055.75;5016444;28;20084;-73
2021/04/20 09:16:54;;;;;;;11.95;7.90;;;;;;;11.34;47.10;94050.72;5042842;28;20028;-74
2021/04/20 09:19:33;;;;;;;13.32;8.85;;;;;;;11.55;44.14;94052.66;5058594;28;20036;-73
2021/04/20 09:22:56;;;;;;;13.50;8.90;;;;;;;11.99;44.17;94050.06;5060628;28;20090;-73
2021/04/20 09:25:59;;;;;;;12.20;8.95;;;;;;;11.77;42.48;94045.69;5072101;28;20036;-74
2021/04/20 09:28:41;;;;;;;11.95;9.00;;;;;;;11.84;42.99;94046.59;5020079;28;20040;-73
2021/04/20 09:31:39;;;;;;;15.30;9.00;;;;;;;12.01;43.12;94046.44;5004098;28;20033;-74
2021/04/20 09:34:05;;;;;;;11.43;9.15;;;;;;;11.89;43.52;94049.50;4944342;28;20050;-73
2021/04/20 09:36:31;;;;;;;11.98;8.63;;;;;;;11.98;43.21;94045.81;4954392;29;20039;-74
2021/04/20 09:38:57;;;;;;;13.52;10.48;;;;;;;12.11;45.30;94041.72;4958418;28;20054;-75
2021/04/20 09:41:28;;;;;;;12.63;9.40;;;;;;;12.06;42.72;94041.44;4936534;28;20038;-74
2021/04/20 09:44:07;;;;;;;11.80;9.30;;;;;;;12.33;45.35;94045.19;4945525;28;20035;-74
2021/04/20 09:46:38;;;;;;;14.93;9.75;;;;;;;12.66;43.04;94039.47;4967825;28;20030;-73
2021/04/20 09:49:37;;;;;;;13.38;10.02;;;;;;;12.91;44.96;94041.75;4953014;28;20064;-75
2021/04/20 09:52:11;;;;;;;17.02;10.60;;;;;;;13.31;42.83;94047.31;4983978;28;20038;-75
2021/04/20 09:54:53;;;;;;;14.32;9.73;;;;;;;13.41;41.51;94052.25;4940884;28;20035;-76
2021/04/20 09:57:50;;;;;;;13.93;9.80;;;;;;;13.48;41.62;94051.28;4964521;28;20039;-75
2021/04/20 10:00:16;;;;;;;13.10;9.63;;;;;;;13.37;40.33;94046.56;4921086;29;20068;-76
2021/04/20 10:03:03;;;;;;;14.82;10.45;;;;;;;13.63;40.46;94047.75;4925235;29;20035;-74
2021/04/20 10:06:16;;;;;;;14.63;10.65;;;;;;;13.71;42.40;94047.59;4934979;29;20051;-75
2021/04/20 10:09:05;;;;;;;14.32;10.93;;;;;;;13.36;43.29;94044.16;4919537;29;20039;-76
2021/04/20 10:12:02;;;;;;;12.50;9.20;;;;;;;13.23;40.11;94040.38;4962804;28;20038;-75
2021/04/20 10:15:09;;;;;;;14.15;10.57;;;;;;;13.66;40.75;94040.28;4966891;28;20072;-77
2021/04/20 10:17:41;;;;;;;14.75;10.20;;;;;;;13.97;42.08;94039.03;4924948;29;20036;-74
2021/04/20 10:20:13;;;;;;;14.23;10.10;;;;;;;13.96;38.66;94039.22;4917037;29;20126;-75
2021/04/20 10:22:53;;;;;;;18.42;10.40;;;;;;;14.15;39.72;94029.81;4919487;29;20043;-75
2021/04/20 10:25:28;;;;;;;15.43;10.98;;;;;;;14.21;41.16;94029.03;4911758;29;20130;-75
2021/04/20 10:28:00;;;;;;;13.48;10.82;;;;;;;14.01;42.54;94027.13;4923573;29;20226;-75
2021/04/20 10:30:46;;;;;;;14.80;10.63;;;;;;;14.63;41.71;94023.69;4919689;29;20094;-75
2021/04/20 10:33:52;;;;;;;14.50;11.05;;;;;;;14.52;43.33;94017.97;4938248;29;20027;-74
2021/04/20 10:36:52;;;;;;;14.15;10.85;;;;;;;14.72;41.69;94026.97;4940115;28;20091;-75
2021/04/20 10:39:44;;;;;;;15.82;10.65;;;;;;;14.65;39.06;94016.41;4949753;28;20045;-75
2021/04/20 10:42:10;;;;;;;13.60;9.85;;;;;;;15.05;36.96;94016.44;4923308;29;20065;-76
2021/04/20 10:44:55;;;;;;;14.35;11.15;;;;;;;15.08;38.28;94018.69;4922534;29;20387;-75
2021/04/20 10:47:20;;;;;;;15.82;11.40;;;;;;;14.95;41.07;94011.56;4937727;29;20115;-75
2021/04/20 10:49:52;;;;;;;13.43;10.68;;;;;;;14.57;37.32;94004.22;4913032;29;20031;-73
2021/04/20 10:52:20;;;;;;;16.35;10.93;;;;;;;14.97;38.13;93999.03;4919713;29;20040;-74
2021/04/20 10:54:57;;;;;;;13.95;10.73;;;;;;;15.23;39.33;94007.94;4961696;28;20042;-74
2021/04/20 10:57:33;;;;;;;15.00;11.00;;;;;;;15.30;36.80;94003.47;4960859;28;20496;-75
2021/04/20 11:00:00;;;;;;;12.95;8.75;;;;;;;15.17;34.54;94003.47;4976827;28;20030;-70
2021/04/20 11:02:56;;;;;;;11.07;8.32;;;;;;;15.10;34.39;94002.66;4976997;28;20036;-74
2021/04/20 11:05:25;;;;;;;13.18;8.75;;;;;;;15.44;34.92;93998.19;4903025;29;20163;-74
2021/04/20 11:07:53;;;;;;;8.63;6.75;;;;;;;15.04;31.29;93993.75;4886353;29;20058;-74
2021/04/20 11:10:25;;;;;;;8.80;6.17;;;;;;;15.09;31.34;93985.22;4894544;29;20035;-73
2021/04/20 11:13:01;;;;;;;10.07;7.43;;;;;;;15.57;32.99;93982.34;4904567;29;20349;-73
2021/04/20 11:15:29;;;;;;;9.90;8.07;;;;;;;16.02;33.27;93981.63;4923827;29;20068;-74
2021/04/20 11:18:28;;;;;;;9.70;7.50;;;;;;;16.34;30.54;93974.53;4887443;29;20035;-73
2021/04/20 11:20:53;;;;;;;;;;;;;;;15.80;32.02;93973.16;4899858;29;20040;-74
2021/04/20 11:23:37;;;;;;;8.70;6.43;;;;;;;15.94;29.15;93966.00;4898997;29;19915;-73
2021/04/20 11:26:11;;;;;;;11.65;6.32;;;;;;;16.74;29.41;93967.41;4918358;29;20028;-75
2021/04/20 11:28:54;;;;;;;8.10;5.38;;;;;;;16.52;28.28;93967.75;4915996;29;20083;-74
2021/04/20 11:31:46;;;;;;;8.13;5.97;;;;;;;17.52;27.47;93968.81;4899848;29;20442;-73
2021/04/20 11:34:17;;;;;;;10.43;5.72;;;;;;;17.56;28.85;93967.34;4884380;29;20032;-74
2021/04/20 11:37:20;;;;;;;10.63;6.90;;;;;;;18.56;27.90;93971.44;4899821;29;20040;-74
2021/04/20 11:40:16;;;;;;;10.15;7.60;;;;;;;17.47;27.22;93963.34;4918130;29;20024;-74
2021/04/20 11:43:13;;;;;;;9.25;7.40;;;;;;;17.65;28.16;93963.38;4948405;28;20035;-75
2021/04/20 11:45:49;;;;;;;9.27;7.13;;;;;;;18.38;26.77;93959.03;4921243;29;20062;-75
2021/04/20 11:48:16;;;;;;;11.57;8.32;;;;;;;19.04;29.64;93956.47;4935488;29;20090;-75
2021/04/20 11:51:04;;;;;;;10.35;8.20;;;;;;;19.12;29.85;93958.00;4918100;29;20399;-74
2021/04/20 11:53:44;;;;;;;10.07;7.68;;;;;;;18.44;30.79;93959.19;4923069;29;20146;-73
2021/04/20 11:56:12;;;;;;;8.95;7.15;;;;;;;19.26;26.47;93947.16;4939650;28;20037;-74
2021/04/20 11:58:40;;;;;;;9.10;7.28;;;;;;;19.83;27.19;93949.22;4950859;28;20110;-74
2021/04/20 12:01:36;;;;;;;9.80;7.83;;;;;;;20.88;27.22;93947.19;4951891;28;20102;-74
2021/04/20 12:04:03;;;;;;;11.25;8.15;;;;;;;20.16;24.74;93943.22;4909751;29;20044;-73
2021/04/20 12:06:50;;;;;;;10.45;7.30;;;;;;;20.46;25.91;93944.06;4899157;29;20035;-73
2021/04/20 12:09:38;;;;;;;16.77;7.82;;;;;;;19.51;25.97;93944.25;4899198;29;20040;-75
2021/04/20 12:12:09;;;;;;;9.80;6.82;;;;;;;18.54;25.74;93943.56;4883914;29;20071;-75
2021/04/20 12:14:37;;;;;;;8.00;5.95;;;;;;;18.75;24.14;93944.06;4891757;29;20032;-74
2021/04/20 12:17:03;;;;;;;8.03;6.40;;;;;;;19.31;25.25;93940.13;4886267;29;20044;-74
2021/04/20 12:19:38;;;;;;;8.82;6.50;;;;;;;20.02;22.94;93939.25;4896705;29;20115;-75